Time;durP1;ratioP1;P1;durP2;ratioP2;P2;SDS_P1;SDS_P2;PMS_P1;PMS_P2;Temp;Humidity;BMP_temperature;BMP_pressure;BME280_temperature;BME280_humidity;BME280_pressure;Samples;Min_cycle;Max_cycle;Signal;HPM_P1;HPM_P2
2024/04/01 04:01:32;;;;;;;23.77;5.93;;;9.30;97.30;;;;;;5757738;23;20495;-87
2024/04/01 04:04:02;;;;;;;13.60;6.97;;;9.20;97.30;;;;;;4966368;28;20425;-89
2024/04/01 04:06:33;;;;;;;4.90;4.33;;;9.20;97.30;;;;;;4972712;28;20434;-90
2024/04/01 04:09:02;;;;;;;34.67;8.67;;;9.20;97.30;;;;;;4966244;28;20455;-89
2024/04/01 04:11:33;;;;;;;10.50;6.03;;;9.20;97.30;;;;;;4966078;28;20457;-88
2024/04/01 04:14:05;;;;;;;23.27;7.10;;;9.20;97.30;;;;;;4969593;28;20842;-87
2024/04/01 04:16:52;;;;;;;13.17;8.00;;;9.20;97.30;;;;;;4961441;28;20432;-90
2024/04/01 04:19:21;;;;;;;4.90;4.67;;;9.30;97.30;;;;;;4972425;28;20460;-91
2024/04/01 04:21:52;;;;;;;10.23;6.60;;;9.30;97.30;;;;;;4972453;28;20486;-87
2024/04/01 04:24:31;;;;;;;17.87;7.30;;;9.30;97.30;;;;;;4964616;28;20452;-87
2024/04/01 04:27:03;;;;;;;8.23;6.30;;;9.30;97.30;;;;;;4960625;28;20844;-90
2024/04/01 04:29:52;;;;;;;9.80;5.27;;;9.40;97.30;;;;;;4967426;28;20433;-86
2024/04/01 04:32:24;;;;;;;19.37;7.80;;;9.40;97.30;;;;;;4964251;28;20751;-87
2024/04/01 04:34:53;;;;;;;6.90;6.33;;;9.50;97.30;;;;;;4967177;28;20449;-86
2024/04/01 04:37:22;;;;;;;18.07;7.93;;;9.50;97.30;;;;;;4968530;28;21006;-87
2024/04/01 04:40:24;;;;;;;10.83;8.50;;;9.50;97.30;;;;;;4956187;28;20457;-86
2024/04/01 04:43:33;;;;;;;10.60;7.07;;;9.50;97.30;;;;;;4951068;28;20472;-87
2024/04/01 04:46:01;;;;;;;8.80;4.37;;;9.60;97.30;;;;;;4944935;28;20417;-87
2024/04/01 04:48:32;;;;;;;18.40;7.33;;;9.60;97.30;;;;;;4967313;28;20426;-88
2024/04/01 04:51:03;;;;;;;17.87;8.50;;;9.60;97.30;;;;;;4948868;28;20450;-87
2024/04/01 04:54:21;;;;;;;5.87;5.33;;;9.60;97.30;;;;;;4956590;28;20444;-88
2024/04/01 04:56:53;;;;;;;25.07;7.27;;;9.60;97.30;;;;;;4890497;28;20418;-87
2024/04/01 04:59:22;;;;;;;11.17;6.80;;;9.60;97.30;;;;;;4953817;28;20458;-86
2024/04/01 05:02:33;;;;;;;12.10;6.27;;;9.60;97.30;;;;;;4976527;28;20500;-88
2024/04/01 05:05:33;;;;;;;8.00;6.00;;;9.40;97.30;;;;;;4965056;28;20943;-87
2024/04/01 05:08:12;;;;;;;5.90;4.67;;;9.40;97.30;;;;;;4946455;28;20945;-87
2024/04/01 05:11:03;;;;;;;15.50;8.17;;;9.40;97.30;;;;;;4960322;28;20480;-87
2024/04/01 05:14:33;;;;;;;9.47;5.23;;;9.50;97.30;;;;;;4957313;28;20430;-88
2024/04/01 05:17:01;;;;;;;5.00;4.23;;;9.50;97.30;;;;;;4936156;28;20414;-87
2024/04/01 05:19:33;;;;;;;5.30;5.00;;;9.50;97.30;;;;;;4954136;28;20804;-87
2024/04/01 05:22:11;;;;;;;5.10;4.77;;;9.50;97.30;;;;;;4948265;29;20446;-87
2024/04/01 05:25:03;;;;;;;5.73;3.90;;;9.60;97.30;;;;;;4951573;28;20417;-86
2024/04/01 05:28:23;;;;;;;5.47;5.17;;;9.60;97.30;;;;;;4943076;28;20472;-86
2024/04/01 05:31:02;;;;;;;4.60;4.30;;;9.60;97.30;;;;;;4942819;28;20546;-89
2024/04/01 05:33:34;;;;;;;27.43;9.67;;;9.60;97.30;;;;;;4937692;29;20441;-85
2024/04/01 05:36:03;;;;;;;12.87;5.90;;;9.50;97.30;;;;;;4953779;28;20504;-88
2024/04/01 05:39:03;;;;;;;8.10;4.70;;;9.50;97.30;;;;;;4950607;28;20510;-86
2024/04/01 05:41:40;;;;;;;16.83;7.23;;;9.40;97.30;;;;;;4893189;29;20524;-86
2024/04/01 05:44:21;;;;;;;4.93;4.60;;;9.50;97.30;;;;;;4896325;29;20459;-87
2024/04/01 05:47:22;;;;;;;;;;;;;;;;;;;;;
2024/04/01 05:50:11;;;;;;;6.53;3.70;;;9.60;97.30;;;;;;4909501;29;20439;-87
2024/04/01 05:53:10;;;;;;;8.70;6.80;;;9.70;97.30;;;;;;4867297;29;20859;-87
2024/04/01 05:56:03;;;;;;;5.47;4.93;;;9.70;97.30;;;;;;4887290;29;20462;-87
2024/04/01 05:58:32;;;;;;;14.63;6.43;;;9.70;97.30;;;;;;4895546;29;20424;-84
2024/04/01 06:01:12;;;;;;;10.83;6.23;;;9.70;97.30;;;;;;4912090;29;20469;-89
2024/04/01 06:03:59;;;;;;;12.50;5.50;;;9.80;97.30;;;;;;4886151;29;20437;-84
2024/04/01 06:06:32;;;;;;;16.57;7.43;;;9.80;97.30;;;;;;4949184;28;20423;-85
2024/04/01 06:09:32;;;;;;;13.93;7.67;;;9.80;97.30;;;;;;4953100;28;20423;-86
2024/04/01 06:12:10;;;;;;;11.10;5.40;;;9.90;97.30;;;;;;4957866;28;20462;-89
2024/04/01 06:14:42;;;;;;;9.80;4.67;;;9.90;97.30;;;;;;4962205;28;20517;-88
2024/04/01 06:17:13;;;;;;;11.73;7.80;;;10.00;97.30;;;;;;4951652;28;20437;-87
2024/04/01 06:19:42;;;;;;;5.63;3.37;;;10.00;97.30;;;;;;4957732;28;20419;-87
2024/04/01 06:22:22;;;;;;;6.73;5.30;;;10.10;97.30;;;;;;4954312;28;20495;-88
2024/04/01 06:24:53;;;;;;;5.77;5.23;;;10.10;97.30;;;;;;4951422;28;20433;-86
2024/04/01 06:27:53;;;;;;;13.53;6.03;;;10.10;97.30;;;;;;4952451;28;20421;-87
2024/04/01 06:30:32;;;;;;;8.93;6.50;;;10.20;97.30;;;;;;4951443;28;20441;-87
2024/04/01 06:33:01;;;;;;;11.93;5.50;;;10.30;97.30;;;;;;4955178;28;20488;-86
2024/04/01 06:35:33;;;;;;;9.47;6.07;;;10.30;97.30;;;;;;4957353;28;20430;-85
2024/04/01 06:38:02;;;;;;;8.17;5.43;;;10.40;97.30;;;;;;4954625;28;20436;-87
2024/04/01 06:40:41;;;;;;;7.97;5.10;;;10.40;97.30;;;;;;4958722;28;20430;-87
2024/04/01 06:43:12;;;;;;;8.00;3.83;;;10.40;97.30;;;;;;4955929;28;20441;-87
2024/04/01 06:45:50;;;;;;;12.93;5.23;;;10.50;97.30;;;;;;4955184;28;20435;-87
2024/04/01 06:49:32;;;;;;;7.63;5.83;;;10.50;97.30;;;;;;4953679;28;20446;-87
2024/04/01 06:51:32;;;;;;;6.40;5.00;;;10.60;97.30;;;;;;4955858;28;20601;-88
2024/04/01 06:54:13;;;;;;;9.60;5.30;;;10.70;97.30;;;;;;4961775;28;20426;-88
2024/04/01 06:56:41;;;;;;;19.17;7.20;;;10.70;97.30;;;;;;4957447;28;20418;-86
2024/04/01 06:59:31;;;;;;;10.33;3.93;;;10.80;97.30;;;;;;4969769;28;20417;-85
2024/04/01 07:02:03;;;;;;;5.47;3.70;;;10.80;97.30;;;;;;4881436;29;20478;-86
2024/04/01 07:04:31;;;;;;;8.57;6.67;;;10.90;97.30;;;;;;4950596;28;20607;-87
2024/04/01 07:07:03;;;;;;;18.20;5.10;;;11.00;97.30;;;;;;4954972;28;20481;-87
2024/04/01 07:10:03;;;;;;;8.87;6.20;;;11.00;97.30;;;;;;4954056;28;21008;-87
2024/04/01 07:12:32;;;;;;;2.83;2.63;;;11.10;97.30;;;;;;4955281;28;20474;-88
2024/04/01 07:18:35;;;;;;;9.80;4.03;;;11.30;97.30;;;;;;4884847;29;20411;-87
2024/04/01 07:24:31;;;;;;;4.10;3.87;;;11.60;97.30;;;;;;4959281;28;20495;-87
2024/04/01 07:27:42;;;;;;;18.23;7.00;;;11.70;97.30;;;;;;4944968;28;20433;-87
2024/04/01 07:30:11;;;;;;;14.80;7.30;;;11.80;97.30;;;;;;4925698;29;20513;-87
2024/04/01 07:32:41;;;;;;;13.73;4.77;;;11.90;97.30;;;;;;4943952;28;20473;-88
2024/04/01 07:35:12;;;;;;;8.90;4.27;;;12.00;97.30;;;;;;4932592;28;20446;-87
2024/04/01 07:37:41;;;;;;;6.77;4.30;;;12.20;97.30;;;;;;4953916;28;20509;-89
2024/04/01 07:40:13;;;;;;;7.80;4.57;;;12.30;97.30;;;;;;4963520;28;20433;-87
2024/04/01 07:42:50;;;;;;;3.70;3.27;;;12.40;97.30;;;;;;4964845;28;20477;-89
2024/04/01 07:48:43;;;;;;;6.30;4.10;;;12.60;97.30;;;;;;4958901;28;20490;-87
2024/04/01 07:51:12;;;;;;;5.23;3.93;;;12.70;97.30;;;;;;4949533;28;20442;-88
2024/04/01 07:53:43;;;;;;;18.10;3.07;;;12.70;97.30;;;;;;4964982;28;20418;-87
2024/04/01 07:56:41;;;;;;;19.53;4.80;;;12.70;97.30;;;;;;4972925;28;21002;-87
2024/04/01 07:59:33;;;;;;;14.90;5.47;;;12.80;97.30;;;;;;4972490;28;20418;-87
2024/04/01 08:02:11;;;;;;;5.67;2.83;;;12.80;97.30;;;;;;4944671;28;21043;-87
2024/04/01 08:04:43;;;;;;;20.73;4.30;;;12.80;97.30;;;;;;4961267;28;20438;-87
2024/04/01 08:07:22;;;;;;;2.60;2.40;;;12.80;97.30;;;;;;4956849;28;20418;-89
2024/04/01 08:09:51;;;;;;;22.53;4.70;;;12.80;97.30;;;;;;4972246;28;20441;-87
2024/04/01 08:13:02;;;;;;;6.90;4.77;;;12.80;97.30;;;;;;4972642;28;20501;-87
2024/04/01 08:15:33;;;;;;;22.53;5.87;;;12.80;97.30;;;;;;4949060;28;20502;-87
2024/04/01 08:18:02;;;;;;;35.60;4.20;;;12.90;97.30;;;;;;4964441;28;20431;-87
2024/04/01 08:20:31;;;;;;;17.80;3.60;;;13.00;97.30;;;;;;4958309;28;20437;-87
2024/04/01 08:23:13;;;;;;;5.97;2.83;;;13.10;97.30;;;;;;4962772;28;20693;-87
2024/04/01 08:26:13;;;;;;;5.57;4.20;;;13.20;97.30;;;;;;4954367;28;20434;-87
2024/04/01 08:28:42;;;;;;;3.73;2.90;;;13.30;97.30;;;;;;4961478;28;20796;-88
2024/04/01 08:31:13;;;;;;;5.10;2.33;;;13.40;97.30;;;;;;4961209;28;20886;-87
2024/04/01 08:34:03;;;;;;;10.40;3.27;;;13.50;97.30;;;;;;4968415;28;20430;-87
2024/04/01 08:36:32;;;;;;;6.07;5.40;;;13.60;97.30;;;;;;4949369;28;20959;-87
2024/04/01 08:39:03;;;;;;;3.70;1.70;;;13.70;97.30;;;;;;4952680;28;20418;-88
2024/04/01 08:41:34;;;;;;;18.73;4.17;;;13.80;97.30;;;;;;4953055;28;20450;-87
2024/04/01 08:44:12;;;;;;;1.87;1.80;;;13.80;97.30;;;;;;4953306;28;20430;-87
2024/04/01 08:47:12;;;;;;;17.40;4.47;;;13.90;97.30;;;;;;4953808;28;20941;-87
2024/04/01 08:50:13;;;;;;;;;;;;;;;;;;;;;
2024/04/01 08:53:12;;;;;;;11.97;5.03;;;14.10;97.30;;;;;;4945584;28;20476;-88
2024/04/01 08:55:52;;;;;;;6.40;3.10;;;14.20;97.30;;;;;;4940297;28;20511;-89
2024/04/01 08:58:23;;;;;;;4.80;3.40;;;14.30;97.30;;;;;;4951898;28;20510;-85
2024/04/01 09:01:39;;;;;;;;;;;;;;;;;;;;;
2024/04/01 09:07:15;;;;;;;5.60;2.43;;;14.90;97.30;;;;;;4859059;29;20476;-87
2024/04/01 09:09:43;;;;;;;1.97;1.87;;;15.20;97.30;;;;;;4941570;28;20425;-88
2024/04/01 09:12:13;;;;;;;9.10;4.77;;;15.40;97.30;;;;;;4955451;28;20456;-87
2024/04/01 09:15:15;;;;;;;6.30;2.57;;;15.60;97.30;;;;;;4955633;28;20426;-87
2024/04/01 09:17:42;;;;;;;6.20;2.17;;;15.80;97.30;;;;;;4908069;29;20810;-87
2024/04/01 09:20:21;;;;;;;22.53;3.57;;;16.00;97.30;;;;;;4890313;29;20829;-89
2024/04/01 09:26:13;;;;;;;3.77;2.73;;;16.40;97.30;;;;;;4967178;28;20954;-87
2024/04/01 09:29:04;;;;;;;4.83;3.30;;;16.60;97.30;;;;;;4955137;28;20438;-86
2024/04/01 09:32:43;;;;;;;8.20;2.60;;;16.70;96.40;;;;;;4949751;28;20469;-89
2024/04/01 09:38:54;;;;;;;;;;;;;;;;;;;;;
2024/04/01 09:45:04;;;;;;;2.50;1.37;;;17.20;97.20;;;;;;4884843;29;20427;-90
2024/04/01 09:48:43;;;;;;;6.93;1.93;;;17.20;96.40;;;;;;4910210;29;20428;-87
2024/04/01 09:54:41;;;;;;;2.27;2.07;;;17.30;94.10;;;;;;4895447;29;20450;-89
2024/04/01 09:57:53;;;;;;;4.97;3.80;;;17.30;95.30;;;;;;4893792;29;20460;-87
2024/04/01 10:07:33;;;;;;;4.30;2.47;;;17.00;97.30;;;;;;4920023;29;20441;-84
2024/04/01 10:13:27;;;;;;;2.60;2.30;;;16.80;97.00;;;;;;4992672;23;20591;-65
2024/04/01 10:16:27;;;;;;;4.20;2.17;;;16.80;96.80;;;;;;4991062;28;20432;-66
2024/04/01 10:19:14;;;;;;;8.30;2.20;;;16.70;96.60;;;;;;4962193;28;20517;-67
2024/04/01 10:22:13;;;;;;;3.73;1.73;;;16.60;96.00;;;;;;4981907;28;20543;-66
2024/04/01 10:25:08;;;;;;;6.13;3.13;;;16.50;96.60;;;;;;4958989;28;20432;-66
2024/04/01 10:28:00;;;;;;;12.37;2.90;;;16.60;97.30;;;;;;4978994;28;20429;-66
2024/04/01 10:30:49;;;;;;;4.03;1.63;;;16.60;97.30;;;;;;4973202;28;20436;-66
2024/04/01 10:33:49;;;;;;;14.37;2.67;;;16.70;97.30;;;;;;4973816;28;20563;-66
2024/04/01 10:36:27;;;;;;;2.23;1.53;;;16.70;97.30;;;;;;4953387;28;20794;-66
2024/04/01 10:39:38;;;;;;;8.83;2.73;;;16.80;96.50;;;;;;4973394;28;20511;-66
2024/04/01 10:42:17;;;;;;;5.53;2.80;;;16.80;95.90;;;;;;4972305;28;20448;-66
2024/04/01 10:45:03;;;;;;;14.67;2.80;;;16.80;95.80;;;;;;4969160;28;20422;-66
2024/04/01 10:47:59;;;;;;;14.83;2.93;;;16.80;94.90;;;;;;4962132;28;20444;-66
2024/04/01 10:50:51;;;;;;;6.20;3.33;;;16.90;95.20;;;;;;4960967;28;20493;-66
2024/04/01 10:53:41;;;;;;;18.13;2.60;;;16.90;95.30;;;;;;4986173;28;20460;-65
2024/04/01 10:56:45;;;;;;;2.90;2.13;;;16.90;93.80;;;;;;4954585;28;20417;-65
2024/04/01 10:59:40;;;;;;;1.87;1.77;;;17.00;95.50;;;;;;4973194;28;20935;-65
2024/04/01 11:02:27;;;;;;;7.50;1.90;;;17.30;95.20;;;;;;4954178;28;20441;-65
2024/04/01 11:05:17;;;;;;;4.20;3.60;;;17.40;94.20;;;;;;4952770;28;20409;-65
2024/04/01 11:08:07;;;;;;;4.27;2.73;;;17.60;93.20;;;;;;4977906;28;20432;-66
2024/04/01 11:10:39;;;;;;;6.60;2.90;;;17.70;93.10;;;;;;4948918;28;20445;-66
2024/04/01 11:13:22;;;;;;;17.57;3.20;;;17.70;92.60;;;;;;4957440;28;20844;-66
2024/04/01 11:15:55;;;;;;;21.73;2.77;;;18.00;92.60;;;;;;4969999;28;20495;-66
2024/04/01 11:18:46;;;;;;;3.37;2.50;;;18.20;92.60;;;;;;4983469;28;20429;-65
2024/04/01 11:21:23;;;;;;;4.13;2.60;;;18.60;92.40;;;;;;4966173;28;20446;-65
2024/04/01 11:24:00;;;;;;;8.40;2.43;;;18.90;90.80;;;;;;5001155;23;20990;-85
2024/04/01 11:27:03;;;;;;;10.97;4.17;;;19.50;90.40;;;;;;4977214;28;20431;-85
2024/04/01 11:29:59;;;;;;;1.40;1.30;;;19.80;89.80;;;;;;4982791;28;20925;-85
2024/04/01 11:32:27;;;;;;;8.90;4.23;;;19.90;89.50;;;;;;4981300;28;20474;-85
2024/04/01 11:35:12;;;;;;;2.27;1.70;;;19.80;88.90;;;;;;4965288;28;20435;-85
2024/04/01 11:37:54;;;;;;;4.70;2.70;;;19.70;89.10;;;;;;4966500;28;20450;-85
2024/04/01 11:40:25;;;;;;;2.87;2.10;;;19.60;88.80;;;;;;4964560;28;20414;-85
2024/04/01 11:42:57;;;;;;;5.23;2.20;;;19.60;89.30;;;;;;4962585;28;20800;-85
2024/04/01 11:45:27;;;;;;;2.23;2.03;;;19.70;88.60;;;;;;4963961;28;20422;-85
2024/04/01 11:47:55;;;;;;;3.53;2.97;;;19.80;90.30;;;;;;4960263;28;20462;-85
2024/04/01 11:50:21;;;;;;;2.23;2.03;;;19.90;88.20;;;;;;4965339;28;20428;-84
2024/04/01 11:53:00;;;;;;;9.97;2.97;;;20.10;89.10;;;;;;4961425;28;20830;-85
2024/04/01 11:55:26;;;;;;;3.27;2.63;;;20.40;86.60;;;;;;4967273;28;20174;-85
2024/04/01 11:57:52;;;;;;;4.93;3.00;;;20.40;86.80;;;;;;4966622;28;20414;-85
2024/04/01 12:00:18;;;;;;;2.50;2.30;;;20.40;87.00;;;;;;4963938;28;20421;-85
2024/04/01 12:02:56;;;;;;;5.93;4.17;;;20.30;86.70;;;;;;4964008;28;20273;-84
2024/04/01 12:05:22;;;;;;;18.63;3.33;;;20.50;86.30;;;;;;4964226;28;20936;-85
2024/04/01 12:07:51;;;;;;;3.90;2.67;;;20.60;85.90;;;;;;4965265;28;20422;-84
2024/04/01 12:10:17;;;;;;;3.70;2.60;;;20.60;85.60;;;;;;4981872;28;20174;-85
2024/04/01 12:12:47;;;;;;;2.53;2.33;;;20.50;86.20;;;;;;4976935;28;20461;-85
2024/04/01 12:15:21;;;;;;;4.00;2.13;;;20.50;85.30;;;;;;4967859;28;20484;-86
2024/04/01 12:17:49;;;;;;;2.40;1.53;;;20.50;83.30;;;;;;4969669;28;20431;-85
2024/04/01 12:20:14;;;;;;;14.73;3.63;;;20.30;83.50;;;;;;4963777;28;20426;-86
2024/04/01 12:22:41;;;;;;;6.37;3.07;;;20.50;83.80;;;;;;4965207;28;20437;-85
2024/04/01 12:25:16;;;;;;;5.10;3.10;;;20.90;83.90;;;;;;4969242;28;20237;-85
2024/04/01 12:27:43;;;;;;;1.93;1.90;;;20.40;83.30;;;;;;4982220;28;20805;-86
2024/04/01 12:30:09;;;;;;;24.33;3.43;;;19.80;83.90;;;;;;4963003;28;20418;-85
2024/04/01 12:32:43;;;;;;;5.10;2.77;;;19.50;85.30;;;;;;4978979;28;20509;-84
2024/04/01 12:35:13;;;;;;;5.13;2.03;;;19.20;85.70;;;;;;4956023;28;20461;-86
2024/04/01 12:37:41;;;;;;;3.10;2.30;;;18.90;86.10;;;;;;4956078;28;20437;-84
2024/04/01 12:40:08;;;;;;;6.70;3.90;;;18.70;86.60;;;;;;4956712;28;20456;-85
2024/04/01 12:42:36;;;;;;;4.07;3.13;;;18.60;87.40;;;;;;4957184;28;20418;-84
2024/04/01 12:45:05;;;;;;;4.13;3.27;;;18.60;87.30;;;;;;4956254;28;20860;-83
2024/04/01 12:47:33;;;;;;;8.30;2.57;;;18.50;87.70;;;;;;4951700;28;20430;-85
2024/04/01 12:50:01;;;;;;;8.93;2.97;;;18.50;88.00;;;;;;4974298;28;20410;-86
2024/04/01 12:52:52;;;;;;;4.63;3.03;;;18.70;88.00;;;;;;4958788;28;21008;-87
2024/04/01 12:55:28;;;;;;;15.03;5.77;;;18.30;89.20;;;;;;4954663;28;20955;-84
2024/04/01 12:58:41;;;;;;;10.20;5.53;;;17.40;93.00;;;;;;4957849;28;20426;-84
2024/04/01 13:01:48;;;;;;;4.23;2.60;;;16.80;96.10;;;;;;4886187;28;20430;-85
2024/04/01 13:04:32;;;;;;;6.10;2.80;;;16.10;96.30;;;;;;4923151;28;20449;-84
2024/04/01 13:07:36;;;;;;;14.60;3.33;;;15.70;96.80;;;;;;4974852;28;20846;-85
2024/04/01 13:10:08;;;;;;;2.07;1.67;;;15.60;97.30;;;;;;4951817;28;21003;-84
2024/04/01 13:12:52;;;;;;;4.03;1.53;;;15.60;97.30;;;;;;4955383;28;20909;-84
2024/04/01 13:15:47;;;;;;;2.67;2.47;;;15.60;97.30;;;;;;4960356;28;20781;-84
2024/04/01 13:18:26;;;;;;;3.03;2.83;;;15.50;97.30;;;;;;4942285;28;20437;-83
2024/04/01 13:21:03;;;;;;;2.00;1.57;;;15.40;97.30;;;;;;4956652;28;20429;-84
2024/04/01 13:23:35;;;;;;;2.50;1.87;;;15.40;97.30;;;;;;4965729;28;20465;-84
2024/04/01 13:26:06;;;;;;;3.83;1.40;;;15.40;97.30;;;;;;4958925;28;20453;-84
2024/04/01 13:28:45;;;;;;;2.50;1.83;;;15.50;97.30;;;;;;4960252;28;20413;-84
2024/04/01 13:31:21;;;;;;;6.40;1.90;;;15.50;97.30;;;;;;4969276;28;20435;-84
2024/04/01 13:34:01;;;;;;;2.20;1.83;;;15.60;97.30;;;;;;4962757;28;20446;-84
2024/04/01 13:37:03;;;;;;;1.80;1.70;;;15.60;97.30;;;;;;4966913;28;20410;-84
2024/04/01 13:39:38;;;;;;;48.67;2.37;;;15.60;97.30;;;;;;4965520;28;21105;-85
2024/04/01 13:42:26;;;;;;;1.97;1.80;;;15.50;97.30;;;;;;4966249;28;20964;-83
2024/04/01 13:44:54;;;;;;;4.10;1.97;;;15.50;97.30;;;;;;4962527;28;21180;-84
2024/04/01 13:47:46;;;;;;;2.30;1.70;;;15.50;97.30;;;;;;4985285;28;20500;-84
2024/04/01 13:50:24;;;;;;;3.37;1.63;;;15.60;97.30;;;;;;4980005;28;21704;-83
2024/04/01 13:52:49;;;;;;;1.50;1.10;;;15.60;96.80;;;;;;4961720;28;20456;-83
2024/04/01 13:55:19;;;;;;;10.23;2.60;;;15.70;96.50;;;;;;4964319;28;20430;-84
2024/04/01 13:58:03;;;;;;;11.90;2.20;;;15.70;96.70;;;;;;4978371;28;20647;-84
2024/04/01 14:00:56;;;;;;;2.10;1.33;;;15.50;97.10;;;;;;4963416;28;20417;-84
2024/04/01 14:03:33;;;;;;;1.30;1.00;;;15.60;97.30;;;;;;4965730;28;20438;-84
2024/04/01 14:06:29;;;;;;;2.17;2.00;;;15.50;97.30;;;;;;4956483;28;20529;-83
2024/04/01 14:09:12;;;;;;;0.80;0.70;;;15.30;97.30;;;;;;4950435;28;20854;-83
2024/04/01 14:11:46;;;;;;;1.33;1.23;;;15.20;97.30;;;;;;4956199;28;20492;-84
2024/04/01 14:14:35;;;;;;;1.60;1.50;;;15.10;97.30;;;;;;4961240;28;20481;-83
2024/04/01 14:17:19;;;;;;;1.53;1.07;;;15.10;97.30;;;;;;4960686;28;21120;-82
2024/04/01 14:20:08;;;;;;;0.90;0.90;;;15.10;97.30;;;;;;4964078;28;20444;-83
2024/04/01 14:22:33;;;;;;;1.87;1.37;;;15.00;97.30;;;;;;4991360;28;20433;-83
2024/04/01 14:25:00;;;;;;;3.73;2.70;;;15.00;97.30;;;;;;4978758;28;21036;-84
2024/04/01 14:27:26;;;;;;;1.40;1.17;;;15.00;97.30;;;;;;4983562;28;20269;-83
2024/04/01 14:29:52;;;;;;;1.17;1.13;;;15.00;97.30;;;;;;4963921;28;20422;-83
2024/04/01 14:32:18;;;;;;;2.13;1.63;;;15.00;97.30;;;;;;4979301;28;20999;-83
2024/04/01 14:34:45;;;;;;;1.57;1.40;;;15.00;96.10;;;;;;4985503;28;20214;-83
2024/04/01 14:37:11;;;;;;;1.63;1.03;;;15.10;96.30;;;;;;4961741;28;20192;-83
2024/04/01 14:39:38;;;;;;;0.90;0.90;;;15.20;95.70;;;;;;4959105;28;20432;-82
2024/04/01 14:42:05;;;;;;;1.10;1.00;;;15.30;94.90;;;;;;4961919;28;20194;-83
2024/04/01 14:44:30;;;;;;;1.63;1.23;;;15.60;94.90;;;;;;4961773;28;21019;-83
2024/04/01 14:46:56;;;;;;;0.90;0.80;;;15.90;93.60;;;;;;4963470;28;20433;-84
2024/04/01 14:49:21;;;;;;;1.10;1.00;;;16.10;93.10;;;;;;4969017;28;20229;-83
2024/04/01 14:51:47;;;;;;;0.83;0.77;;;16.20;91.50;;;;;;4971026;28;20490;-83
2024/04/01 14:54:13;;;;;;;0.80;0.70;;;15.90;90.60;;;;;;4970693;28;20202;-83
2024/04/01 14:56:39;;;;;;;0.70;0.70;;;15.70;91.40;;;;;;4954853;28;20426;-84
2024/04/01 14:59:04;;;;;;;0.90;0.80;;;15.60;91.30;;;;;;4969658;28;20187;-83
2024/04/01 15:01:31;;;;;;;0.90;0.80;;;15.50;91.60;;;;;;4960994;28;20420;-83
2024/04/01 15:04:05;;;;;;;0.77;0.73;;;15.50;92.00;;;;;;4968072;28;20201;-83
2024/04/01 15:06:30;;;;;;;0.77;0.73;;;15.50;92.60;;;;;;4985779;28;20467;-83
2024/04/01 15:08:56;;;;;;;1.00;0.90;;;15.50;92.90;;;;;;4960277;28;20422;-84
2024/04/01 15:11:22;;;;;;;0.90;0.80;;;15.50;91.80;;;;;;4969955;28;20186;-84
2024/04/01 15:13:47;;;;;;;0.70;0.63;;;15.40;92.10;;;;;;4958943;28;20194;-83
2024/04/01 15:16:14;;;;;;;0.73;0.67;;;15.40;92.10;;;;;;4965740;28;20534;-83
2024/04/01 15:18:44;;;;;;;0.90;0.80;;;15.40;92.40;;;;;;4983785;28;20657;-83
2024/04/01 15:21:11;;;;;;;0.77;0.73;;;15.40;91.80;;;;;;4958168;28;20792;-84
2024/04/01 15:23:40;;;;;;;0.70;0.67;;;15.30;92.00;;;;;;4968632;28;21014;-83
2024/04/01 15:26:07;;;;;;;1.00;0.97;;;15.30;91.90;;;;;;4966639;28;20848;-83
2024/04/01 15:28:33;;;;;;;0.80;0.70;;;15.20;92.10;;;;;;4973464;28;20423;-83
2024/04/01 15:30:59;;;;;;;0.80;0.70;;;15.20;92.80;;;;;;4972976;28;20421;-83
2024/04/01 15:33:26;;;;;;;0.90;0.80;;;15.30;92.60;;;;;;4981588;28;20360;-82
2024/04/01 15:35:52;;;;;;;0.90;0.80;;;15.30;92.80;;;;;;4976056;28;20428;-84
2024/04/01 15:38:19;;;;;;;0.77;0.73;;;15.20;92.70;;;;;;4968041;28;20795;-83
2024/04/01 15:40:46;;;;;;;1.43;1.20;;;15.20;92.70;;;;;;4962359;28;20480;-84
2024/04/01 15:43:13;;;;;;;1.03;1.00;;;15.20;93.10;;;;;;4975772;28;20507;-83
2024/04/01 15:45:43;;;;;;;1.10;1.00;;;15.00;92.70;;;;;;4964627;28;20943;-83
2024/04/01 15:48:12;;;;;;;0.70;0.70;;;14.90;93.20;;;;;;4978530;28;20433;-83
2024/04/01 15:50:38;;;;;;;0.90;0.80;;;14.80;93.80;;;;;;4959788;28;20433;-83
2024/04/01 15:53:04;;;;;;;0.70;0.70;;;14.80;94.20;;;;;;4965479;28;20497;-82
2024/04/01 15:55:30;;;;;;;0.90;0.80;;;14.70;94.60;;;;;;4960876;28;20319;-83
2024/04/01 15:57:55;;;;;;;0.80;0.80;;;14.70;94.80;;;;;;4962503;28;20449;-83
2024/04/01 16:00:21;;;;;;;0.70;0.70;;;14.70;95.00;;;;;;4967512;28;20771;-83
2024/04/01 16:02:47;;;;;;;0.80;0.70;;;14.70;95.30;;;;;;4967000;28;20178;-83
2024/04/01 16:05:16;;;;;;;0.80;0.70;;;14.70;95.10;;;;;;4970235;28;20228;-83
2024/04/01 16:07:42;;;;;;;0.80;0.80;;;14.60;95.10;;;;;;4965480;28;20425;-83
2024/04/01 16:10:10;;;;;;;0.70;0.70;;;14.50;95.30;;;;;;4967074;28;21040;-82
2024/04/01 16:12:37;;;;;;;0.70;0.70;;;14.50;95.30;;;;;;4985149;28;20586;-84
2024/04/01 16:15:03;;;;;;;0.73;0.70;;;14.40;94.70;;;;;;4957091;28;20845;-83
2024/04/01 16:17:33;;;;;;;0.70;0.70;;;14.40;94.60;;;;;;4978194;28;20418;-82
2024/04/01 16:20:04;;;;;;;0.70;0.70;;;14.40;94.50;;;;;;4963391;28;20422;-83
2024/04/01 16:22:31;;;;;;;0.70;0.70;;;14.30;94.10;;;;;;4966507;28;20433;-82
2024/04/01 16:24:58;;;;;;;0.70;0.70;;;14.30;93.90;;;;;;4974531;28;20501;-83
2024/04/01 16:27:43;;;;;;;0.70;0.70;;;15.00;92.40;;;;;;4961769;28;20947;-83
2024/04/01 16:30:16;;;;;;;0.90;0.80;;;15.80;89.40;;;;;;4969216;28;20421;-83
2024/04/01 16:32:43;;;;;;;0.60;0.60;;;16.70;87.30;;;;;;4971315;28;21017;-84
2024/04/01 16:35:08;;;;;;;0.70;0.70;;;16.70;85.80;;;;;;4969434;28;20430;-84
2024/04/01 16:37:35;;;;;;;0.90;0.70;;;15.90;87.10;;;;;;4971373;28;20799;-83
2024/04/01 16:40:02;;;;;;;0.93;0.83;;;15.30;89.20;;;;;;4970316;28;20170;-84
2024/04/01 16:42:31;;;;;;;5.50;1.10;;;14.80;90.80;;;;;;4990786;28;20878;-83
2024/04/01 16:44:58;;;;;;;0.70;0.70;;;14.50;91.80;;;;;;4963280;28;20445;-83
2024/04/01 16:47:23;;;;;;;0.80;0.70;;;14.40;92.50;;;;;;4969688;28;20416;-82
2024/04/01 16:49:50;;;;;;;0.93;0.83;;;14.30;92.70;;;;;;4974433;28;20424;-83
2024/04/01 16:52:16;;;;;;;0.90;0.80;;;14.10;93.10;;;;;;4983001;28;20209;-84
2024/04/01 16:54:41;;;;;;;0.80;0.70;;;14.00;93.60;;;;;;4959222;28;20505;-84
2024/04/01 16:57:08;;;;;;;1.67;1.57;;;13.80;94.00;;;;;;4958825;28;20186;-83
2024/04/01 16:59:34;;;;;;;0.90;0.80;;;13.80;94.40;;;;;;4968326;28;20182;-84
2024/04/01 17:02:00;;;;;;;1.43;1.37;;;13.70;94.10;;;;;;4965922;28;20460;-84
2024/04/01 17:04:26;;;;;;;1.10;1.00;;;13.70;94.70;;;;;;4969337;28;20452;-84
2024/04/01 17:06:54;;;;;;;0.90;0.80;;;13.60;94.90;;;;;;4980243;28;20183;-84
2024/04/01 17:09:20;;;;;;;1.00;0.90;;;13.60;94.90;;;;;;4959127;28;20545;-84
2024/04/01 17:11:46;;;;;;;1.00;0.90;;;13.60;95.20;;;;;;4990520;28;20969;-83
2024/04/01 17:14:16;;;;;;;0.90;0.80;;;13.60;95.30;;;;;;4973642;28;20222;-83
2024/04/01 17:16:42;;;;;;;0.70;0.70;;;13.50;94.60;;;;;;4979193;28;20649;-84
2024/04/01 17:19:10;;;;;;;0.90;0.80;;;13.50;94.90;;;;;;4964523;28;20432;-83
2024/04/01 17:21:35;;;;;;;0.70;0.70;;;13.40;94.90;;;;;;4987091;28;20201;-83
2024/04/01 17:24:01;;;;;;;0.90;0.90;;;13.30;94.60;;;;;;4985769;28;20546;-83
2024/04/01 17:26:27;;;;;;;1.20;1.00;;;13.30;94.90;;;;;;4979176;28;20229;-83
2024/04/01 17:28:58;;;;;;;0.70;0.70;;;13.30;95.20;;;;;;4952801;28;20178;-83
2024/04/01 17:31:25;;;;;;;0.70;0.70;;;13.20;95.10;;;;;;4956572;28;20426;-83
2024/04/01 17:33:50;;;;;;;0.87;0.80;;;13.10;95.60;;;;;;4952773;28;20835;-84
2024/04/01 17:36:17;;;;;;;0.83;0.77;;;13.10;95.80;;;;;;4956810;28;20509;-84
2024/04/01 17:38:43;;;;;;;0.90;0.80;;;13.10;96.20;;;;;;4960098;28;20175;-83
2024/04/01 17:41:09;;;;;;;0.90;0.80;;;13.00;96.20;;;;;;4957083;28;20420;-84
2024/04/01 17:43:39;;;;;;;1.00;0.90;;;13.00;96.40;;;;;;4957739;28;20213;-84
2024/04/01 17:46:05;;;;;;;0.83;0.77;;;12.90;96.80;;;;;;4961865;28;20433;-84
2024/04/01 17:48:33;;;;;;;1.20;1.10;;;12.90;96.80;;;;;;4971664;28;20908;-84
2024/04/01 17:50:59;;;;;;;1.00;0.90;;;12.90;97.10;;;;;;4957744;28;20862;-82
2024/04/01 17:53:26;;;;;;;0.90;0.80;;;12.80;97.30;;;;;;4957653;28;20480;-84
2024/04/01 17:55:52;;;;;;;3.33;1.10;;;12.80;97.30;;;;;;4971512;28;20468;-83
2024/04/01 17:58:18;;;;;;;0.70;0.70;;;12.70;97.30;;;;;;4953115;28;20978;-84
2024/04/01 18:00:45;;;;;;;0.77;0.73;;;12.70;97.30;;;;;;4963501;28;20453;-84
2024/04/01 18:03:10;;;;;;;0.77;0.73;;;12.60;97.30;;;;;;4960618;28;20198;-84
2024/04/01 18:05:37;;;;;;;0.90;0.80;;;12.60;97.30;;;;;;4958900;28;20528;-84
2024/04/01 18:08:04;;;;;;;1.10;1.00;;;12.60;97.30;;;;;;4975273;28;20178;-84
2024/04/01 18:10:30;;;;;;;1.40;1.30;;;12.60;97.30;;;;;;4955404;28;20828;-84
2024/04/01 18:12:56;;;;;;;0.90;0.80;;;12.50;97.30;;;;;;4959584;28;20899;-84
2024/04/01 18:15:21;;;;;;;1.00;0.90;;;12.40;97.30;;;;;;4955714;28;20434;-84
2024/04/01 18:17:48;;;;;;;1.00;0.90;;;12.30;97.30;;;;;;4963758;28;20188;-84